BAW9170 EGFF-EGLL
Flight info
| Callsign | BAW9170 |
|---|---|
| Flight time | 0h 26m |
| Altitude | 13000 |
| Route | BCN P4 HAWFA L607 YORQI N21 CAWZE P2 SIRIC |
| Aircraft | A35K/H-SDE2E3GHIJ3J4J5LM1ORWXY/LB1D1 |
Departure
| Time | 2026-05-03 22:15 |
|---|---|
| Airport | Cardiff International Airport (EGFF) |
Arrival
| Time | 2026-05-03 22:41 |
|---|---|
| Airport | London Heathrow Airport (EGLL) |
| Time | Latitude | Longitude | Altitude | Speed | Heading |
|---|---|---|---|---|---|
| 2026-05-03 22:07 | 51.39958 | -3.34303 | 229 ft | 0 kts | 297° |
| 2026-05-03 22:08 | 51.39952 | -3.34284 | 230 ft | 4 kts | 297° |
| 2026-05-03 22:08 | 51.39941 | -3.34250 | 232 ft | 4 kts | 277° |
| 2026-05-03 22:08 | 51.39947 | -3.34218 | 233 ft | 4 kts | 216° |
| 2026-05-03 22:09 | 51.39970 | -3.34198 | 228 ft | 2 kts | 206° |
| 2026-05-03 22:09 | 51.39972 | -3.34196 | 228 ft | 0 kts | 206° |
| 2026-05-03 22:11 | 51.39966 | -3.34201 | 232 ft | 4 kts | 206° |
| 2026-05-03 22:11 | 51.39924 | -3.34233 | 230 ft | 9 kts | 206° |
| 2026-05-03 22:11 | 51.39870 | -3.34283 | 230 ft | 8 kts | 224° |
| 2026-05-03 22:11 | 51.39864 | -3.34368 | 232 ft | 9 kts | 286° |
| 2026-05-03 22:12 | 51.39883 | -3.34438 | 234 ft | 11 kts | 294° |
| 2026-05-03 22:12 | 51.39923 | -3.34569 | 234 ft | 15 kts | 297° |
| 2026-05-03 22:12 | 51.39980 | -3.34749 | 226 ft | 21 kts | 297° |
| 2026-05-03 22:12 | 51.40052 | -3.34980 | 226 ft | 26 kts | 296° |
| 2026-05-03 22:13 | 51.40134 | -3.35241 | 230 ft | 24 kts | 296° |
| 2026-05-03 22:13 | 51.40148 | -3.35299 | 224 ft | 8 kts | 283° |
| 2026-05-03 22:13 | 51.40130 | -3.35449 | 224 ft | 17 kts | 236° |
| 2026-05-03 22:13 | 51.40058 | -3.35513 | 227 ft | 6 kts | 177° |
| 2026-05-03 22:14 | 51.40022 | -3.35466 | 222 ft | 9 kts | 117° |
| 2026-05-03 22:14 | 51.40014 | -3.35441 | 226 ft | 12 kts | 117° |
| 2026-05-03 22:14 | 51.39867 | -3.34978 | 223 ft | 97 kts | 115° |
| 2026-05-03 22:14 | 51.39400 | -3.33494 | 384 ft | 185 kts | 118° |
| 2026-05-03 22:15 | 51.38814 | -3.31531 | 1488 ft | 206 kts | 115° |
| 2026-05-03 22:15 | 51.38173 | -3.29370 | 2462 ft | 224 kts | 116° |
| 2026-05-03 22:15 | 51.37435 | -3.27027 | 3102 ft | 244 kts | 117° |
| 2026-05-03 22:15 | 51.36739 | -3.24484 | 3944 ft | 254 kts | 108° |
| 2026-05-03 22:16 | 51.36419 | -3.21676 | 4863 ft | 260 kts | 97° |
| 2026-05-03 22:16 | 51.36303 | -3.18767 | 5809 ft | 266 kts | 92° |
| 2026-05-03 22:16 | 51.36308 | -3.15575 | 6851 ft | 271 kts | 89° |
| 2026-05-03 22:16 | 51.36494 | -3.07679 | 9458 ft | 284 kts | 89° |
| 2026-05-03 22:17 | 51.36623 | -3.01083 | 10867 ft | 318 kts | 90° |
| 2026-05-03 22:17 | 51.36717 | -2.93503 | 11909 ft | 358 kts | 91° |
| 2026-05-03 22:17 | 51.36805 | -2.85366 | 12853 ft | 370 kts | 91° |
| 2026-05-03 22:17 | 51.36894 | -2.76752 | 12888 ft | 397 kts | 91° |
| 2026-05-03 22:18 | 51.36983 | -2.67879 | 12884 ft | 399 kts | 91° |
| 2026-05-03 22:18 | 51.37045 | -2.61228 | 12886 ft | 399 kts | 91° |
| 2026-05-03 22:18 | 51.37083 | -2.56782 | 12881 ft | 399 kts | 91° |
| 2026-05-03 22:18 | 51.37120 | -2.52394 | 12887 ft | 399 kts | 91° |
| 2026-05-03 22:19 | 51.37156 | -2.47939 | 12889 ft | 399 kts | 91° |
| 2026-05-03 22:19 | 51.37190 | -2.43445 | 12887 ft | 399 kts | 91° |
| 2026-05-03 22:19 | 51.37221 | -2.39048 | 12880 ft | 399 kts | 91° |
| 2026-05-03 22:19 | 51.37251 | -2.34601 | 12892 ft | 400 kts | 91° |
| 2026-05-03 22:20 | 51.37279 | -2.30136 | 12892 ft | 401 kts | 91° |
| 2026-05-03 22:20 | 51.37306 | -2.25676 | 12894 ft | 401 kts | 92° |
| 2026-05-03 22:20 | 51.37328 | -2.21220 | 12897 ft | 401 kts | 92° |
| 2026-05-03 22:20 | 51.37351 | -2.16761 | 12896 ft | 401 kts | 92° |
| 2026-05-03 22:21 | 51.37373 | -2.12290 | 12899 ft | 401 kts | 92° |
| 2026-05-03 22:21 | 51.37405 | -2.05103 | 12699 ft | 401 kts | 90° |
| 2026-05-03 22:21 | 51.37178 | -1.96057 | 13175 ft | 405 kts | 98° |
| 2026-05-03 22:21 | 51.36578 | -1.87175 | 12906 ft | 401 kts | 98° |
| 2026-05-03 22:22 | 51.36029 | -1.79537 | 12909 ft | 401 kts | 98° |
| 2026-05-03 22:22 | 51.35706 | -1.75098 | 12908 ft | 401 kts | 98° |
| 2026-05-03 22:22 | 51.35381 | -1.70662 | 12906 ft | 401 kts | 98° |
| 2026-05-03 22:22 | 51.35053 | -1.66227 | 12905 ft | 401 kts | 99° |
| 2026-05-03 22:23 | 51.34723 | -1.61786 | 12904 ft | 401 kts | 99° |
| 2026-05-03 22:23 | 51.34392 | -1.57348 | 12904 ft | 401 kts | 99° |
| 2026-05-03 22:23 | 51.34060 | -1.52919 | 12902 ft | 401 kts | 99° |
| 2026-05-03 22:23 | 51.33726 | -1.48486 | 12906 ft | 401 kts | 99° |
| 2026-05-03 22:24 | 51.33394 | -1.44116 | 12903 ft | 401 kts | 99° |
| 2026-05-03 22:24 | 51.33055 | -1.39680 | 12905 ft | 402 kts | 98° |
| 2026-05-03 22:24 | 51.32717 | -1.35256 | 12919 ft | 402 kts | 99° |
| 2026-05-03 22:24 | 51.32376 | -1.30817 | 12915 ft | 402 kts | 99° |
| 2026-05-03 22:25 | 51.32032 | -1.26381 | 12922 ft | 402 kts | 99° |
| 2026-05-03 22:25 | 51.31686 | -1.21937 | 12925 ft | 402 kts | 99° |
| 2026-05-03 22:25 | 51.31339 | -1.17496 | 12930 ft | 402 kts | 99° |
| 2026-05-03 22:25 | 51.30991 | -1.13053 | 12933 ft | 402 kts | 99° |
| 2026-05-03 22:26 | 51.30727 | -1.08622 | 12922 ft | 400 kts | 94° |
| 2026-05-03 22:26 | 51.30696 | -1.04184 | 12826 ft | 398 kts | 91° |
| 2026-05-03 22:26 | 51.30712 | -0.99862 | 12734 ft | 381 kts | 91° |
| 2026-05-03 22:26 | 51.30742 | -0.95714 | 12596 ft | 369 kts | 91° |
| 2026-05-03 22:27 | 51.30775 | -0.91576 | 12449 ft | 374 kts | 91° |
| 2026-05-03 22:27 | 51.30813 | -0.87414 | 12279 ft | 375 kts | 91° |
| 2026-05-03 22:27 | 51.30853 | -0.83247 | 12117 ft | 374 kts | 91° |
| 2026-05-03 22:27 | 51.30893 | -0.79094 | 11950 ft | 373 kts | 91° |
| 2026-05-03 22:28 | 51.30930 | -0.74946 | 11602 ft | 371 kts | 91° |
| 2026-05-03 22:28 | 51.30898 | -0.70834 | 11195 ft | 369 kts | 93° |
| 2026-05-03 22:28 | 51.30830 | -0.66744 | 10805 ft | 368 kts | 93° |
| 2026-05-03 22:28 | 51.30765 | -0.62666 | 10418 ft | 366 kts | 93° |
| 2026-05-03 22:29 | 51.30706 | -0.58627 | 10057 ft | 361 kts | 92° |
| 2026-05-03 22:29 | 51.30651 | -0.54733 | 9797 ft | 346 kts | 92° |
| 2026-05-03 22:29 | 51.30599 | -0.50924 | 9520 ft | 332 kts | 92° |
| 2026-05-03 22:29 | 51.30549 | -0.47359 | 9249 ft | 318 kts | 93° |
| 2026-05-03 22:30 | 51.30664 | -0.43848 | 8991 ft | 307 kts | 82° |
| 2026-05-03 22:30 | 51.31125 | -0.40586 | 8769 ft | 296 kts | 76° |
| 2026-05-03 22:30 | 51.31642 | -0.37508 | 8561 ft | 285 kts | 76° |
| 2026-05-03 22:30 | 51.32155 | -0.34507 | 8385 ft | 274 kts | 76° |
| 2026-05-03 22:31 | 51.32650 | -0.31624 | 8192 ft | 264 kts | 76° |
| 2026-05-03 22:31 | 51.33132 | -0.28824 | 7912 ft | 259 kts | 76° |
| 2026-05-03 22:31 | 51.33606 | -0.26065 | 7592 ft | 255 kts | 76° |
| 2026-05-03 22:31 | 51.34070 | -0.23336 | 7273 ft | 252 kts | 76° |
| 2026-05-03 22:32 | 51.34527 | -0.20639 | 6935 ft | 251 kts | 76° |
| 2026-05-03 22:32 | 51.34981 | -0.17957 | 6601 ft | 249 kts | 76° |
| 2026-05-03 22:32 | 51.35432 | -0.15291 | 6260 ft | 247 kts | 76° |
| 2026-05-03 22:32 | 51.35878 | -0.12641 | 5893 ft | 246 kts | 76° |
| 2026-05-03 22:33 | 51.36323 | -0.10001 | 5506 ft | 245 kts | 76° |
| 2026-05-03 22:33 | 51.36760 | -0.07378 | 5193 ft | 243 kts | 76° |
| 2026-05-03 22:33 | 51.37197 | -0.04773 | 4857 ft | 242 kts | 75° |
| 2026-05-03 22:33 | 51.37978 | -0.02426 | 4532 ft | 238 kts | 46° |
| 2026-05-03 22:34 | 51.39328 | -0.01082 | 4334 ft | 227 kts | 14° |
| 2026-05-03 22:34 | 51.40846 | -0.01088 | 4210 ft | 211 kts | 342° |
| 2026-05-03 22:34 | 51.42164 | -0.01948 | 4052 ft | 199 kts | 332° |
| 2026-05-03 22:34 | 51.43379 | -0.02921 | 4003 ft | 193 kts | 331° |
| 2026-05-03 22:35 | 51.44579 | -0.03893 | 4002 ft | 193 kts | 331° |
| 2026-05-03 22:35 | 51.45774 | -0.04875 | 4003 ft | 193 kts | 330° |
| 2026-05-03 22:35 | 51.46812 | -0.06200 | 4014 ft | 191 kts | 308° |
| 2026-05-03 22:35 | 51.47551 | -0.07963 | 4008 ft | 190 kts | 295° |
| 2026-05-03 22:36 | 51.47913 | -0.09944 | 4011 ft | 188 kts | 275° |
| 2026-05-03 22:36 | 51.47967 | -0.12041 | 3964 ft | 188 kts | 268° |
| 2026-05-03 22:36 | 51.47968 | -0.14133 | 3750 ft | 187 kts | 268° |
| 2026-05-03 22:36 | 51.47961 | -0.16211 | 3478 ft | 185 kts | 268° |
| 2026-05-03 22:37 | 51.47947 | -0.18272 | 3210 ft | 184 kts | 268° |
| 2026-05-03 22:37 | 51.47935 | -0.20331 | 2948 ft | 185 kts | 268° |
| 2026-05-03 22:37 | 51.47923 | -0.22389 | 2691 ft | 183 kts | 268° |
| 2026-05-03 22:37 | 51.47909 | -0.24383 | 2459 ft | 176 kts | 268° |
| 2026-05-03 22:38 | 51.47897 | -0.26311 | 2207 ft | 170 kts | 268° |
| 2026-05-03 22:38 | 51.47885 | -0.28175 | 1994 ft | 165 kts | 269° |
| 2026-05-03 22:38 | 51.47873 | -0.29984 | 1760 ft | 158 kts | 269° |
| 2026-05-03 22:38 | 51.47863 | -0.31680 | 1558 ft | 147 kts | 268° |
| 2026-05-03 22:39 | 51.47853 | -0.33269 | 1359 ft | 137 kts | 268° |
| 2026-05-03 22:39 | 51.47843 | -0.34753 | 1181 ft | 130 kts | 268° |
| 2026-05-03 22:39 | 51.47798 | -0.36195 | 970 ft | 130 kts | 265° |
| 2026-05-03 22:39 | 51.47792 | -0.37642 | 807 ft | 128 kts | 268° |
| 2026-05-03 22:40 | 51.47780 | -0.39104 | 663 ft | 132 kts | 268° |
| 2026-05-03 22:40 | 51.47779 | -0.40557 | 437 ft | 127 kts | 268° |
| 2026-05-03 22:40 | 51.47777 | -0.41991 | 297 ft | 131 kts | 267° |
| 2026-05-03 22:40 | 51.47768 | -0.43444 | 138 ft | 130 kts | 269° |
| 2026-05-03 22:41 | 51.47763 | -0.44847 | 98 ft | 115 kts | 270° |
| 2026-05-03 22:41 | 51.47760 | -0.45962 | 94 ft | 85 kts | 269° |
| 2026-05-03 22:41 | 51.47760 | -0.46741 | 96 ft | 57 kts | 270° |
| 2026-05-03 22:41 | 51.47757 | -0.47217 | 95 ft | 34 kts | 269° |
| 2026-05-03 22:42 | 51.47688 | -0.47386 | 95 ft | 14 kts | 190° |
| 2026-05-03 22:42 | 51.47642 | -0.47389 | 95 ft | 1 kts | 179° |
| 2026-05-03 22:42 | 51.47639 | -0.47389 | 95 ft | 0 kts | 179° |
| 2026-05-03 22:43 | 51.47637 | -0.47389 | 95 ft | 2 kts | 179° |
| 2026-05-03 22:43 | 51.47589 | -0.47375 | 95 ft | 6 kts | 168° |
| 2026-05-03 22:43 | 51.47548 | -0.47361 | 95 ft | 8 kts | 169° |
| 2026-05-03 22:44 | 51.47478 | -0.47355 | 94 ft | 14 kts | 178° |
| 2026-05-03 22:44 | 51.47392 | -0.47354 | 92 ft | 10 kts | 180° |
| 2026-05-03 22:44 | 51.47368 | -0.47354 | 95 ft | 0 kts | 180° |
| 2026-05-03 22:44 | 51.47351 | -0.47354 | 96 ft | 5 kts | 179° |
| 2026-05-03 22:45 | 51.47295 | -0.47353 | 94 ft | 9 kts | 179° |
| 2026-05-03 22:45 | 51.47259 | -0.47353 | 95 ft | 3 kts | 180° |
| 2026-05-03 22:45 | 51.47234 | -0.47379 | 97 ft | 5 kts | 237° |
| 2026-05-03 22:45 | 51.47225 | -0.47437 | 97 ft | 5 kts | 262° |
| 2026-05-03 22:46 | 51.47225 | -0.47459 | 95 ft | 1 kts | 267° |
| 2026-05-03 22:46 | 51.47224 | -0.47483 | 96 ft | 2 kts | 268° |
| 2026-05-03 22:46 | 51.47224 | -0.47492 | 96 ft | 0 kts | 268° |